Kulusuk, Greenland

9:12 AM WGST on September 03, 2015 (GMT -0200)
Kulusuk | | Change Station
CLOSE
Current Station
Personal Weather Station
Location: Kulusuk Bygd, EASTGREENLAND
Elevation: 90 ft
Nearby Weather Stations

Elev 90 ft 65.58 °N, 37.19 °W | Updated 28 seconds ago

Scattered Clouds
Scattered Clouds
44.2 °F
Feels Like 44 °F
N
0.0
Wind Variable Wind from East
Gusts 0.0 mph

Today
High -- | Low -- °F
--% Chance of Precip.
Yesterday
High -- | Low -- °F
Precip. -- in
5:10 AM 7:43 PM
Waning Gibbous, 71% visible
Pressure 30.04 in
Visibility 6.2 miles
Clouds Few 200 ft
Scattered Clouds 20000 ft
Windchill 44 °F
Dew Point 43 °F
Humidity 94%
Rainfall 0.00 in
Snow Depth Not available.
UV 1 out of 12
Pollen Not available.
Air Quality Not available.
Flu Activity Not available.
METAR BGKK 031050Z 25002KT 9999 PRFG FEW002 SCT200 04/02 Q1017
Pressure 30.04 in
Visibility 6.2 miles
Clouds Few 200 ft
Scattered Clouds 20000 ft
Windchill 44 °F
Dew Point 43 °F
Humidity 94%
Rainfall 0.00 in
Snow Depth Not available.
UV 1 out of 12
Pollen Not available.
Air Quality Not available.
Flu Activity Not available.
METAR BGKK 031050Z 25002KT 9999 PRFG FEW002 SCT200 04/02 Q1017

10-Day Weather Forecast

×

Almanac

Astronomy

Sep. 03, 2015 Rise Set
Actual Time
Civil Twilight
Nautical Twilight
Astronomical Twilight
Moon
Length of Visible Light
Length of Day
Tomorrow will be .
, % of the Moon is Illuminated

Today's Extremes

Country Highs Country Lows

Community

WunderPhotos

Upload Photos

1,851,933 photos uploaded!

WunderBlogs® & News

Nearby

Air Quality

  Air Quality AQ Index Pollutant
Not available.

Snow Depth

Station Depth Elevation

Earthquake Activity

City Distance Mag. Time & Date
Minimum magnitude displayed is 2.5.

Coastal Water Temperatures

Place Temperature

Stations

Nearby Weather Stations

Station Location Temp. Windchill Dew Point Humidity Wind Precip. Elev Updated Type